Time;durP1;ratioP1;P1;durP2;ratioP2;P2;SDS_P1;SDS_P2;PMS_P1;PMS_P2;Temp;Humidity;BMP_temperature;BMP_pressure;BME280_temperature;BME280_humidity;BME280_pressure;Samples;Min_cycle;Max_cycle;Signal;HPM_P1;HPM_P2
2023/05/04 00:02:27;;;;;;;;;;;;;;;9.77;100.00;102122.53;5123134;28;19914;-73
2023/05/04 00:04:57;;;;;;;;;;;;;;;9.75;100.00;102116.47;5122395;28;19922;-73
2023/05/04 00:07:27;;;;;;;;;;;;;;;9.76;100.00;102115.47;5120546;28;19921;-73
2023/05/04 00:09:58;;;;;;;;;;;;;;;9.77;100.00;102108.28;5122491;28;19914;-73
2023/05/04 00:12:28;;;;;;;;;;;;;;;9.79;100.00;102111.72;5122454;28;20317;-73
2023/05/04 00:14:58;;;;;;;;;;;;;;;9.77;100.00;102117.19;5122827;28;20006;-73
2023/05/04 00:17:29;;;;;;;;;;;;;;;9.76;100.00;102111.97;5127508;28;19922;-73
2023/05/04 00:20:00;;;;;;;;;;;;;;;9.75;100.00;102111.13;5128854;28;20387;-73
2023/05/04 00:22:30;;;;;;;;;;;;;;;9.75;100.00;102110.25;5132643;28;19942;-73
2023/05/04 00:25:01;;;;;;;;;;;;;;;9.70;100.00;102102.63;5122910;28;19977;-73
2023/05/04 00:27:31;;;;;;;;;;;;;;;9.68;100.00;102101.03;5121387;28;19914;-73
2023/05/04 00:30:02;;;;;;;;;;;;;;;9.62;100.00;102101.56;5122357;28;19918;-73
2023/05/04 00:32:32;;;;;;;;;;;;;;;9.53;100.00;102097.81;5122778;28;20005;-73
2023/05/04 00:35:03;;;;;;;;;;;;;;;9.47;100.00;102088.47;5122438;28;19915;-73
2023/05/04 00:37:33;;;;;;;;;;;;;;;9.46;100.00;102091.28;5120968;28;19915;-73
2023/05/04 00:40:03;;;;;;;;;;;;;;;9.42;100.00;102085.31;5130972;28;20309;-72
2023/05/04 00:42:34;;;;;;;;;;;;;;;9.39;100.00;102088.28;5128452;28;19918;-74
2023/05/04 00:45:05;;;;;;;;;;;;;;;9.36;100.00;102083.16;5122540;28;19973;-74
2023/05/04 00:47:35;;;;;;;;;;;;;;;9.32;100.00;102074.53;5120839;28;20005;-74
2023/05/04 00:50:06;;;;;;;;;;;;;;;9.28;100.00;102072.22;5120973;28;20531;-74
2023/05/04 00:52:40;;;;;;;;;;;;;;;9.23;100.00;102061.91;5133357;28;19918;-74
2023/05/04 00:55:11;;;;;;;;;;;;;;;9.22;100.00;102056.69;5122616;28;20415;-73
2023/05/04 00:57:42;;;;;;;;;;;;;;;9.19;100.00;102054.28;5120773;28;19915;-74
2023/05/04 01:00:12;;;;;;;;;;;;;;;9.13;100.00;102046.72;5120915;28;19934;-74
2023/05/04 01:02:43;;;;;;;;;;;;;;;9.08;100.00;102050.63;5122688;28;20009;-74
2023/05/04 01:05:13;;;;;;;;;;;;;;;9.07;100.00;102046.25;5122461;28;19929;-74
2023/05/04 01:08:00;;;;;;;;;;;;;;;9.02;100.00;102050.31;5121149;28;20306;-74
2023/05/04 01:10:35;;;;;;;;;;;;;;;8.96;100.00;102050.81;5126109;28;19936;-74
2023/05/04 01:13:08;;;;;;;;;;;;;;;8.92;100.00;102044.00;5128581;28;20018;-73
2023/05/04 01:15:39;;;;;;;;;;;;;;;8.87;100.00;102041.72;5122166;28;19914;-74
2023/05/04 01:18:09;;;;;;;;;;;;;;;8.85;100.00;102032.97;5129596;28;19989;-74
2023/05/04 01:20:40;;;;;;;;;;;;;;;8.80;100.00;102035.19;5130181;28;20326;-74
2023/05/04 01:23:10;;;;;;;;;;;;;;;8.77;100.00;102040.75;5126827;28;20334;-74
2023/05/04 01:25:45;;;;;;;;;;;;;;;8.74;100.00;102039.22;5122332;28;20119;-74
2023/05/04 01:28:32;;;;;;;;;;;;;;;8.70;100.00;102044.94;5132719;28;19926;-74
2023/05/04 01:31:04;;;;;;;;;;;;;;;8.67;100.00;102040.66;5120635;28;19915;-73
2023/05/04 01:33:35;;;;;;;;;;;;;;;8.64;100.00;102046.28;5121645;28;19926;-74
2023/05/04 01:36:06;;;;;;;;;;;;;;;8.65;100.00;102036.44;5121881;28;19942;-74
2023/05/04 01:38:36;;;;;;;;;;;;;;;8.66;100.00;102038.13;5119072;28;20320;-74
2023/05/04 01:41:09;;;;;;;;;;;;;;;8.66;100.00;102032.78;5123773;28;19925;-74
2023/05/04 01:43:40;;;;;;;;;;;;;;;8.65;100.00;102034.59;5121356;28;20280;-74
2023/05/04 01:46:11;;;;;;;;;;;;;;;8.63;100.00;102030.34;5121214;28;19922;-74
2023/05/04 01:48:41;;;;;;;;;;;;;;;8.63;100.00;102033.00;5121220;28;19914;-74
2023/05/04 01:51:12;;;;;;;;;;;;;;;8.59;100.00;102031.59;5125785;28;20379;-74
2023/05/04 01:53:42;;;;;;;;;;;;;;;8.55;100.00;102033.66;5141837;28;19922;-74
2023/05/04 01:56:13;;;;;;;;;;;;;;;8.51;100.00;102035.72;5122021;28;19961;-74
2023/05/04 01:58:43;;;;;;;;;;;;;;;8.47;100.00;102039.59;5120398;28;19961;-74
2023/05/04 02:01:14;;;;;;;;;;;;;;;8.42;100.00;102036.44;5121479;28;19970;-74
2023/05/04 02:03:45;;;;;;;;;;;;;;;8.38;100.00;102026.13;5122427;28;19914;-74
2023/05/04 02:06:18;;;;;;;;;;;;;;;8.36;100.00;102020.91;5124999;28;20013;-74
2023/05/04 02:08:49;;;;;;;;;;;;;;;8.35;100.00;102026.34;5123495;28;19914;-73
2023/05/04 02:11:23;;;;;;;;;;;;;;;8.31;100.00;102023.06;5125045;28;19915;-74
2023/05/04 02:13:53;;;;;;;;;;;;;;;8.27;100.00;102021.59;5125158;28;19969;-74
2023/05/04 02:16:24;;;;;;;;;;;;;;;8.22;100.00;102024.63;5129997;28;19981;-74
2023/05/04 02:18:54;;;;;;;;;;;;;;;8.19;100.00;102029.41;5128877;28;19918;-74
2023/05/04 02:21:37;;;;;;;;;;;;;;;8.15;100.00;102031.47;5136235;28;20402;-74
2023/05/04 02:24:07;;;;;;;;;;;;;;;8.15;100.00;102041.31;5125024;28;20005;-74
2023/05/04 02:26:37;;;;;;;;;;;;;;;8.13;100.00;102037.88;5124105;28;19958;-74
2023/05/04 02:29:08;;;;;;;;;;;;;;;8.07;100.00;102044.56;5125217;28;19915;-74
2023/05/04 02:31:38;;;;;;;;;;;;;;;8.01;100.00;102051.25;5129704;28;19918;-73
2023/05/04 02:34:09;;;;;;;;;;;;;;;7.95;100.00;102048.22;5132227;28;20010;-74
2023/05/04 02:36:39;;;;;;;;;;;;;;;7.91;100.00;102046.75;5124051;28;20046;-74
2023/05/04 02:39:09;;;;;;;;;;;;;;;7.85;100.00;102041.88;5125102;28;19918;-73
2023/05/04 02:41:40;;;;;;;;;;;;;;;7.81;100.00;102043.94;5131815;28;19914;-74
2023/05/04 02:44:10;;;;;;;;;;;;;;;7.77;100.00;102040.66;5144016;28;20064;-74
2023/05/04 02:46:41;;;;;;;;;;;;;;;7.74;100.00;102038.22;5143584;28;20311;-74
2023/05/04 02:49:11;;;;;;;;;;;;;;;7.69;100.00;102034.22;5143075;28;20380;-74
2023/05/04 02:51:42;;;;;;;;;;;;;;;7.65;100.00;102027.41;5135474;28;19914;-73
2023/05/04 02:54:12;;;;;;;;;;;;;;;7.62;100.00;102030.28;5128385;28;20384;-73
2023/05/04 02:56:42;;;;;;;;;;;;;;;7.58;100.00;102031.50;5142460;28;20343;-74
2023/05/04 02:59:13;;;;;;;;;;;;;;;7.55;100.00;102023.75;5142014;28;19921;-73
2023/05/04 03:01:43;;;;;;;;;;;;;;;7.51;100.00;102031.97;5143486;28;19918;-74
2023/05/04 03:04:13;;;;;;;;;;;;;;;7.49;100.00;102033.94;5142652;28;19914;-74
2023/05/04 03:06:44;;;;;;;;;;;;;;;7.48;100.00;102026.88;5142333;28;19922;-74
2023/05/04 03:09:14;;;;;;;;;;;;;;;7.46;100.00;102026.13;5142442;28;19918;-74
2023/05/04 03:11:45;;;;;;;;;;;;;;;7.43;100.00;102026.38;5142295;28;19993;-73
2023/05/04 03:14:15;;;;;;;;;;;;;;;7.43;100.00;102023.72;5143765;28;20513;-73
2023/05/04 03:16:46;;;;;;;;;;;;;;;7.41;100.00;102032.81;5140388;28;19921;-73
2023/05/04 03:19:17;;;;;;;;;;;;;;;7.40;100.00;102020.44;5144096;28;19918;-73
2023/05/04 03:21:48;;;;;;;;;;;;;;;7.40;100.00;102023.09;5139308;28;20503;-74
2023/05/04 03:24:19;;;;;;;;;;;;;;;7.39;100.00;102016.91;5124045;28;19914;-74
2023/05/04 03:26:49;;;;;;;;;;;;;;;7.38;100.00;102014.34;5123010;28;19918;-73
2023/05/04 03:29:19;;;;;;;;;;;;;;;7.35;100.00;102014.59;5124204;28;19922;-73
2023/05/04 03:31:50;;;;;;;;;;;;;;;7.31;100.00;102005.94;5122327;28;20009;-73
2023/05/04 03:34:21;;;;;;;;;;;;;;;7.29;100.00;102009.72;5123243;28;19914;-74
2023/05/04 03:36:54;;;;;;;;;;;;;;;7.27;100.00;102007.16;5121570;28;19915;-73
2023/05/04 03:39:25;;;;;;;;;;;;;;;7.26;100.00;101997.44;5138376;28;20022;-73
2023/05/04 03:41:56;;;;;;;;;;;;;;;7.27;100.00;101999.13;5133076;28;19920;-73
2023/05/04 03:44:26;;;;;;;;;;;;;;;7.22;100.00;101990.63;5123846;28;19925;-73
2023/05/04 03:46:57;;;;;;;;;;;;;;;7.17;100.00;101982.97;5133094;28;20382;-74
2023/05/04 03:49:27;;;;;;;;;;;;;;;7.14;100.00;101987.72;5125364;28;19931;-73
2023/05/04 03:51:57;;;;;;;;;;;;;;;7.10;100.00;101984.41;5136063;28;19953;-73
2023/05/04 03:54:28;;;;;;;;;;;;;;;7.06;100.00;101987.44;5123975;28;19919;-73
2023/05/04 03:56:58;;;;;;;;;;;;;;;7.00;100.00;101978.91;5122350;28;19915;-73
2023/05/04 03:59:29;;;;;;;;;;;;;;;6.98;100.00;101983.53;5129208;28;19944;-73
2023/05/04 04:02:00;;;;;;;;;;;;;;;6.96;100.00;101982.78;5130775;28;19914;-74
2023/05/04 04:04:30;;;;;;;;;;;;;;;6.93;100.00;101983.03;5133350;28;19914;-74
2023/05/04 04:07:01;;;;;;;;;;;;;;;6.91;100.00;101981.41;5135814;28;19918;-74
2023/05/04 04:09:31;;;;;;;;;;;;;;;6.86;100.00;101980.91;5121656;28;20292;-73
2023/05/04 04:12:01;;;;;;;;;;;;;;;6.80;100.00;101976.91;5139983;28;19921;-73
2023/05/04 04:14:32;;;;;;;;;;;;;;;6.80;100.00;101978.72;5132121;28;19914;-73
2023/05/04 04:17:02;;;;;;;;;;;;;;;6.78;100.00;101980.63;5139769;28;19914;-73
2023/05/04 04:19:33;;;;;;;;;;;;;;;6.77;100.00;101979.78;5130751;28;19942;-73
2023/05/04 04:22:03;;;;;;;;;;;;;;;6.77;100.00;101985.13;5142080;28;19992;-73
2023/05/04 04:24:33;;;;;;;;;;;;;;;6.79;100.00;101987.69;5129251;28;19926;-73
2023/05/04 04:27:04;;;;;;;;;;;;;;;6.80;100.00;101979.56;5120672;28;19921;-73
2023/05/04 04:29:34;;;;;;;;;;;;;;;6.82;100.00;101982.09;5123664;28;19921;-73
2023/05/04 04:32:05;;;;;;;;;;;;;;;6.83;100.00;101983.81;5143152;28;20294;-73
2023/05/04 04:34:35;;;;;;;;;;;;;;;6.85;100.00;101989.88;5128759;28;19921;-73
2023/05/04 04:37:06;;;;;;;;;;;;;;;6.85;100.00;101989.88;5140379;28;19969;-73
2023/05/04 04:39:36;;;;;;;;;;;;;;;6.86;100.00;101986.25;5141317;28;19922;-73
2023/05/04 04:42:07;;;;;;;;;;;;;;;6.87;100.00;101996.78;5142076;28;19918;-73
2023/05/04 04:44:38;;;;;;;;;;;;;;;6.91;100.00;101992.94;5141733;28;20458;-73
2023/05/04 04:47:08;;;;;;;;;;;;;;;6.96;100.00;102004.13;5140267;28;19914;-73
2023/05/04 04:49:38;;;;;;;;;;;;;;;7.00;100.00;101996.75;5140578;28;20295;-73
2023/05/04 04:52:09;;;;;;;;;;;;;;;7.05;100.00;101993.72;5130669;28;19921;-73
2023/05/04 04:54:40;;;;;;;;;;;;;;;7.07;100.00;101991.78;5142391;28;19918;-73
2023/05/04 04:57:10;;;;;;;;;;;;;;;7.12;100.00;101984.28;5139648;28;20040;-73
2023/05/04 04:59:40;;;;;;;;;;;;;;;7.14;100.00;101995.72;5141119;28;19914;-73
2023/05/04 05:02:11;;;;;;;;;;;;;;;7.19;100.00;101991.72;5141807;28;19914;-73
2023/05/04 05:04:41;;;;;;;;;;;;;;;7.23;100.00;101981.69;5142373;28;19914;-73
2023/05/04 05:07:11;;;;;;;;;;;;;;;7.29;100.00;101981.22;5139239;28;19914;-73
2023/05/04 05:09:42;;;;;;;;;;;;;;;7.35;100.00;101980.72;5141670;28;19918;-73
2023/05/04 05:12:12;;;;;;;;;;;;;;;7.43;100.00;101985.47;5151086;28;19910;-73
2023/05/04 05:14:43;;;;;;;;;;;;;;;7.48;100.00;101981.50;5133733;28;20005;-73
2023/05/04 05:17:16;;;;;;;;;;;;;;;7.54;100.00;101980.16;5135418;28;19942;-73
2023/05/04 05:19:46;;;;;;;;;;;;;;;7.61;100.00;101984.03;5139349;28;19918;-73
2023/05/04 05:22:17;;;;;;;;;;;;;;;7.67;100.00;101975.56;5134223;28;19914;-73
2023/05/04 05:24:47;;;;;;;;;;;;;;;7.72;100.00;101972.53;5121956;28;20435;-73
2023/05/04 05:27:17;;;;;;;;;;;;;;;7.79;100.00;101973.75;5121289;28;19915;-73
2023/05/04 05:29:48;;;;;;;;;;;;;;;7.85;100.00;101969.75;5135214;28;19919;-73
2023/05/04 05:32:18;;;;;;;;;;;;;;;7.92;100.00;101979.81;5122567;28;19915;-73
2023/05/04 05:34:49;;;;;;;;;;;;;;;8.00;100.00;101964.03;5121330;28;20405;-73
2023/05/04 05:37:19;;;;;;;;;;;;;;;8.05;100.00;101969.03;5132406;28;19914;-73
2023/05/04 05:39:50;;;;;;;;;;;;;;;8.15;100.00;101969.13;5133018;28;19921;-73
2023/05/04 05:42:20;;;;;;;;;;;;;;;8.22;100.00;101964.97;5146562;28;19914;-73
2023/05/04 05:44:51;;;;;;;;;;;;;;;8.31;100.00;101966.91;5125301;28;19940;-74
2023/05/04 05:47:21;;;;;;;;;;;;;;;8.39;100.00;101969.00;5125055;28;19920;-73
2023/05/04 05:49:51;;;;;;;;;;;;;;;8.49;100.00;101968.13;5125364;28;19919;-73
2023/05/04 05:52:22;;;;;;;;;;;;;;;8.66;100.00;101968.56;5139895;28;20960;-73
2023/05/04 05:54:52;;;;;;;;;;;;;;;8.80;100.00;101963.78;5137523;28;20395;-73
2023/05/04 05:57:23;;;;;;;;;;;;;;;9.00;100.00;101962.13;5124573;28;20430;-73
2023/05/04 05:59:54;;;;;;;;;;;;;;;9.22;100.00;101965.66;5125552;28;20364;-74
2023/05/04 06:02:25;;;;;;;;;;;;;;;9.47;100.00;101967.91;5124480;28;19918;-73
2023/05/04 06:04:55;;;;;;;;;;;;;;;9.70;100.00;101960.59;5124830;28;20391;-74
2023/05/04 06:07:26;;;;;;;;;;;;;;;9.94;100.00;101962.09;5124769;28;20007;-74
2023/05/04 06:09:56;;;;;;;;;;;;;;;10.14;100.00;101958.53;5125385;28;19918;-74
2023/05/04 06:12:26;;;;;;;;;;;;;;;10.27;100.00;101952.94;5138872;28;19914;-73
2023/05/04 06:14:57;;;;;;;;;;;;;;;10.41;100.00;101941.81;5125120;28;19930;-73
2023/05/04 06:17:27;;;;;;;;;;;;;;;10.59;100.00;101941.97;5130445;28;19969;-73
2023/05/04 06:19:58;;;;;;;;;;;;;;;10.77;100.00;101934.06;5142449;28;20434;-73
2023/05/04 06:22:28;;;;;;;;;;;;;;;11.01;100.00;101931.81;5145279;28;19914;-74
2023/05/04 06:24:58;;;;;;;;;;;;;;;11.30;100.00;101925.56;5141522;28;19922;-74
2023/05/04 06:27:30;;;;;;;;;;;;;;;11.53;100.00;101934.94;5124066;28;20041;-74
2023/05/04 06:30:00;;;;;;;;;;;;;;;11.64;100.00;101934.75;5123992;28;19918;-74
2023/05/04 06:32:31;;;;;;;;;;;;;;;11.61;100.00;101929.69;5125356;28;19921;-74
2023/05/04 06:35:02;;;;;;;;;;;;;;;11.70;100.00;101916.34;5124216;28;19914;-74
2023/05/04 06:37:32;;;;;;;;;;;;;;;11.68;100.00;101920.03;5123886;28;20017;-73
2023/05/04 06:40:04;;;;;;;;;;;;;;;11.98;100.00;101918.09;5125990;28;19914;-74
2023/05/04 06:42:34;;;;;;;;;;;;;;;12.14;100.00;101918.28;5116557;28;19926;-74
2023/05/04 06:45:05;;;;;;;;;;;;;;;12.29;100.00;101929.41;5138570;28;19928;-74
2023/05/04 06:47:36;;;;;;;;;;;;;;;12.44;100.00;101927.03;5127253;28;19922;-74
2023/05/04 06:50:08;;;;;;;;;;;;;;;12.67;100.00;101920.22;5127119;28;19969;-74
2023/05/04 06:52:39;;;;;;;;;;;;;;;12.99;100.00;101926.88;5135369;28;19914;-74
2023/05/04 06:55:10;;;;;;;;;;;;;;;13.46;100.00;101918.50;5124846;28;19919;-74
2023/05/04 06:57:40;;;;;;;;;;;;;;;13.78;100.00;101922.38;5137840;28;20711;-74
2023/05/04 07:00:11;;;;;;;;;;;;;;;13.98;100.00;101921.97;5128157;28;20633;-74
2023/05/04 07:02:41;;;;;;;;;;;;;;;14.33;100.00;101916.53;5131174;28;19969;-74
2023/05/04 07:05:12;;;;;;;;;;;;;;;14.38;100.00;101925.81;5126877;28;20331;-74
2023/05/04 07:07:42;;;;;;;;;;;;;;;14.62;100.00;101914.25;5130092;28;20004;-74
2023/05/04 07:10:13;;;;;;;;;;;;;;;14.77;100.00;101914.44;5133168;28;19942;-74
2023/05/04 07:12:44;;;;;;;;;;;;;;;14.83;100.00;101913.75;5125995;28;19930;-74
2023/05/04 07:15:14;;;;;;;;;;;;;;;14.97;100.00;101917.66;5130871;28;20339;-74
2023/05/04 07:17:45;;;;;;;;;;;;;;;15.34;100.00;101914.41;5131427;28;20397;-75
2023/05/04 07:20:16;;;;;;;;;;;;;;;15.54;100.00;101909.44;5131310;28;19914;-74
2023/05/04 07:22:46;;;;;;;;;;;;;;;15.62;100.00;101912.16;5124679;28;20566;-74
2023/05/04 07:25:17;;;;;;;;;;;;;;;15.79;100.00;101902.97;5121790;28;20437;-74
2023/05/04 07:27:47;;;;;;;;;;;;;;;16.01;100.00;101903.22;5122516;28;19922;-75
2023/05/04 07:30:18;;;;;;;;;;;;;;;16.22;100.00;101899.91;5127941;28;19922;-74
2023/05/04 07:32:48;;;;;;;;;;;;;;;16.36;100.00;101898.28;5124306;28;20369;-74
2023/05/04 07:35:19;;;;;;;;;;;;;;;16.44;100.00;101898.25;5120853;28;19937;-75
2023/05/04 07:37:50;;;;;;;;;;;;;;;16.79;100.00;101902.25;5121388;28;19922;-75
2023/05/04 07:40:21;;;;;;;;;;;;;;;17.09;100.00;101892.34;5124046;28;19919;-75
2023/05/04 07:42:51;;;;;;;;;;;;;;;17.01;100.00;101897.84;5120675;28;19914;-75
2023/05/04 07:45:21;;;;;;;;;;;;;;;16.99;100.00;101892.59;5121642;28;19972;-75
2023/05/04 07:47:52;;;;;;;;;;;;;;;17.26;100.00;101898.44;5123028;28;19918;-75
2023/05/04 07:50:22;;;;;;;;;;;;;;;17.17;100.00;101889.56;5124780;28;19914;-75
2023/05/04 07:52:52;;;;;;;;;;;;;;;17.08;100.00;101885.25;5126489;28;20634;-75
2023/05/04 07:55:23;;;;;;;;;;;;;;;17.19;100.00;101883.94;5120089;28;20576;-75
2023/05/04 07:57:54;;;;;;;;;;;;;;;17.30;100.00;101884.34;5123117;28;19915;-75
2023/05/04 08:00:24;;;;;;;;;;;;;;;17.32;100.00;101876.88;5126878;28;19921;-75
2023/05/04 08:02:55;;;;;;;;;;;;;;;17.53;100.00;101869.88;5119962;28;19914;-75
2023/05/04 08:05:26;;;;;;;;;;;;;;;17.98;100.00;101855.25;5122691;28;20838;-75
2023/05/04 08:07:56;;;;;;;;;;;;;;;18.41;100.00;101858.00;5121317;28;19925;-75
2023/05/04 08:10:27;;;;;;;;;;;;;;;18.68;100.00;101851.00;5127311;28;20582;-75
2023/05/04 08:12:58;;;;;;;;;;;;;;;19.25;100.00;101852.69;5124602;28;19918;-75
2023/05/04 08:15:28;;;;;;;;;;;;;;;19.59;100.00;101851.88;5125448;28;19914;-75
2023/05/04 08:17:59;;;;;;;;;;;;;;;19.97;100.00;101850.56;5125996;28;19910;-75
2023/05/04 08:20:29;;;;;;;;;;;;;;;20.21;100.00;101838.28;5122916;28;19919;-76
2023/05/04 08:23:01;;;;;;;;;;;;;;;20.12;98.95;101838.44;5120990;28;19918;-75
2023/05/04 08:25:31;;;;;;;;;;;;;;;20.34;100.00;101841.03;5116598;28;20395;-75
2023/05/04 08:28:02;;;;;;;;;;;;;;;20.36;95.73;101836.22;5115761;28;20415;-76
2023/05/04 08:30:32;;;;;;;;;;;;;;;20.60;96.75;101832.09;5119491;28;20375;-76
2023/05/04 08:33:03;;;;;;;;;;;;;;;20.88;93.03;101840.03;5122306;28;19913;-75
2023/05/04 08:35:34;;;;;;;;;;;;;;;20.86;90.34;101833.97;5123905;28;20339;-76
2023/05/04 08:38:04;;;;;;;;;;;;;;;21.03;90.25;101824.28;5121858;28;20001;-76
2023/05/04 08:40:34;;;;;;;;;;;;;;;21.35;92.01;101821.75;5126757;28;19918;-76
2023/05/04 08:43:05;;;;;;;;;;;;;;;21.22;85.52;101822.59;5128382;28;19926;-76
2023/05/04 08:45:37;;;;;;;;;;;;;;;21.38;90.78;101821.31;5119334;28;20928;-76
2023/05/04 08:48:08;;;;;;;;;;;;;;;21.55;87.32;101814.34;5118511;28;19938;-76
2023/05/04 08:50:38;;;;;;;;;;;;;;;21.51;84.18;101809.53;5119171;28;20402;-76
2023/05/04 08:53:10;;;;;;;;;;;;;;;21.60;80.25;101805.50;5122868;28;19918;-76
2023/05/04 08:55:41;;;;;;;;;;;;;;;21.80;83.41;101802.69;5119796;28;19918;-76
2023/05/04 08:58:16;;;;;;;;;;;;;;;21.86;81.05;101802.66;5119907;28;20267;-76
2023/05/04 09:00:46;;;;;;;;;;;;;;;22.03;83.54;101796.66;5122298;28;19961;-76
2023/05/04 09:03:17;;;;;;;;;;;;;;;21.95;81.04;101789.59;5127398;28;19926;-76
2023/05/04 09:05:49;;;;;;;;;;;;;;;21.88;81.70;101786.88;5123194;28;19922;-75
2023/05/04 09:08:20;;;;;;;;;;;;;;;22.11;81.65;101793.72;5128368;28;19958;-76
2023/05/04 09:10:50;;;;;;;;;;;;;;;22.27;78.37;101789.63;5127164;28;20024;-76
2023/05/04 09:13:21;;;;;;;;;;;;;;;22.69;81.28;101788.00;5126361;28;20331;-75
2023/05/04 09:16:10;;;;;;;;;;;;;;;23.05;81.03;101790.03;5128583;28;19925;-76
2023/05/04 09:18:43;;;;;;;;;;;;;;;22.71;75.69;101778.53;5126309;28;19918;-76
2023/05/04 09:21:13;;;;;;;;;;;;;;;22.88;79.67;101778.81;5125167;28;20388;-76
2023/05/04 09:23:47;;;;;;;;;;;;;;;22.99;72.71;101772.63;5116776;28;20003;-76
2023/05/04 09:26:30;;;;;;;;;;;;;;;22.97;72.52;101765.69;5121990;28;20421;-76
2023/05/04 09:29:12;;;;;;;;;;;;;;;23.09;74.17;101761.13;5119527;28;19914;-76
2023/05/04 09:31:54;;;;;;;;;;;;;;;22.84;74.06;101766.66;5119051;28;19919;-76
2023/05/04 09:34:25;;;;;;;;;;;;;;;22.94;78.51;101753.31;5134013;28;19918;-76
2023/05/04 09:36:57;;;;;;;;;;;;;;;23.58;78.74;101753.81;5127070;28;19998;-76
2023/05/04 09:39:28;;;;;;;;;;;;;;;23.53;70.06;101749.03;5125184;28;20008;-76
2023/05/04 09:41:59;;;;;;;;;;;;;;;23.69;67.76;101744.00;5120115;28;19969;-76
2023/05/04 09:44:30;;;;;;;;;;;;;;;23.49;68.39;101733.28;5123709;28;20683;-76
2023/05/04 09:47:01;;;;;;;;;;;;;;;23.43;71.28;101726.81;5123235;28;20008;-76
2023/05/04 09:49:32;;;;;;;;;;;;;;;23.50;74.90;101730.34;5124016;28;20665;-76
2023/05/04 09:52:03;;;;;;;;;;;;;;;23.42;72.91;101733.38;5121072;28;19914;-76
2023/05/04 09:54:35;;;;;;;;;;;;;;;23.46;66.79;101726.38;5131718;28;19929;-76
2023/05/04 09:57:16;;;;;;;;;;;;;;;23.67;73.17;101721.50;5125662;28;19965;-76
2023/05/04 09:59:47;;;;;;;;;;;;;;;23.65;77.69;101713.53;5122245;28;20406;-76
2023/05/04 10:02:18;;;;;;;;;;;;;;;23.13;71.18;101710.34;5125472;28;19915;-76
2023/05/04 10:04:50;;;;;;;;;;;;;;;23.07;77.04;101705.78;5122293;28;20387;-76
2023/05/04 10:07:21;;;;;;;;;;;;;;;23.39;73.30;101689.19;5126799;28;20310;-77
2023/05/04 10:09:55;;;;;;;;;;;;;;;23.25;72.13;101691.28;5126860;28;19918;-76
2023/05/04 10:12:25;;;;;;;;;;;;;;;23.04;66.58;101691.72;5124818;28;20109;-76
2023/05/04 10:14:56;;;;;;;;;;;;;;;23.15;73.66;101691.81;5130381;28;20016;-76
2023/05/04 10:17:45;;;;;;;;;;;;;;;23.00;72.26;101684.00;5122573;28;19929;-76
2023/05/04 10:20:36;;;;;;;;;;;;;;;23.44;75.75;101679.19;5127063;28;19918;-77
2023/05/04 10:23:27;;;;;;;;;;;;;;;22.89;73.00;101676.56;5127832;28;19965;-76
2023/05/04 10:25:58;;;;;;;;;;;;;;;23.07;72.38;101670.22;5124360;28;20122;-76
2023/05/04 10:28:39;;;;;;;;;;;;;;;23.05;70.43;101666.06;5125437;28;19918;-76
2023/05/04 10:31:10;;;;;;;;;;;;;;;23.06;67.12;101662.25;5127832;28;19919;-77
2023/05/04 10:33:41;;;;;;;;;;;;;;;23.07;68.30;101658.44;5127091;28;19922;-76
2023/05/04 10:36:11;;;;;;;;;;;;;;;22.94;70.56;101656.69;5129399;28;20041;-76
2023/05/04 10:38:42;;;;;;;;;;;;;;;23.16;75.06;101654.34;5124942;28;20022;-76
2023/05/04 10:41:14;;;;;;;;;;;;;;;23.62;73.99;101659.16;5133747;28;19915;-76
2023/05/04 10:43:49;;;;;;;;;;;;;;;23.06;73.09;101659.50;5130288;28;19983;-76
2023/05/04 10:46:20;;;;;;;;;;;;;;;23.15;71.85;101664.44;5127385;28;20334;-76
2023/05/04 10:48:51;;;;;;;;;;;;;;;22.46;70.47;101660.97;5124838;28;19918;-76
2023/05/04 10:51:23;;;;;;;;;;;;;;;22.45;73.50;101658.47;5121571;28;20398;-77
2023/05/04 10:53:53;;;;;;;;;;;;;;;22.73;69.88;101650.59;5126244;28;19918;-77
2023/05/04 10:56:24;;;;;;;;;;;;;;;22.79;70.26;101656.22;5124795;28;19914;-76
2023/05/04 10:58:55;;;;;;;;;;;;;;;23.01;71.28;101641.03;5126059;28;19918;-76
2023/05/04 11:01:25;;;;;;;;;;;;;;;22.73;71.22;101642.38;5128125;28;19921;-76
2023/05/04 11:03:55;;;;;;;;;;;;;;;23.04;71.65;101640.56;5126112;28;19919;-76
2023/05/04 11:06:26;;;;;;;;;;;;;;;23.13;68.45;101630.97;5119489;28;19922;-76
2023/05/04 11:08:59;;;;;;;;;;;;;;;22.79;69.57;101634.31;5128696;28;19922;-77
2023/05/04 11:11:34;;;;;;;;;;;;;;;23.13;69.79;101630.16;5119685;28;19975;-76
2023/05/04 11:14:05;;;;;;;;;;;;;;;22.83;75.17;101635.53;5119204;28;19946;-77
2023/05/04 11:16:35;;;;;;;;;;;;;;;23.06;79.54;101626.69;5126001;28;19960;-77
2023/05/04 11:19:07;;;;;;;;;;;;;;;22.98;71.67;101620.44;5122575;28;19926;-77
2023/05/04 11:21:39;;;;;;;;;;;;;;;23.11;71.75;101616.72;5128144;28;20331;-77
2023/05/04 11:24:09;;;;;;;;;;;;;;;22.86;78.83;101608.56;5124683;28;20360;-77
2023/05/04 11:26:58;;;;;;;;;;;;;;;23.29;69.47;101610.34;5121879;28;19919;-77
2023/05/04 11:29:28;;;;;;;;;;;;;;;23.59;72.57;101614.97;5124982;28;19918;-77
2023/05/04 11:31:59;;;;;;;;;;;;;;;23.53;67.25;101601.13;5123114;28;19918;-77
2023/05/04 11:34:30;;;;;;;;;;;;;;;23.77;73.92;101603.97;5125691;28;19922;-77
2023/05/04 11:37:02;;;;;;;;;;;;;;;23.69;66.29;101598.81;5128179;28;20008;-77
2023/05/04 11:39:34;;;;;;;;;;;;;;;24.01;69.49;101593.88;5128215;28;20008;-77
2023/05/04 11:42:06;;;;;;;;;;;;;;;23.86;74.51;101590.78;5137684;28;19925;-77
2023/05/04 11:44:37;;;;;;;;;;;;;;;23.44;72.29;101586.09;5121699;28;19926;-77
2023/05/04 11:47:07;;;;;;;;;;;;;;;23.58;66.55;101584.00;5120367;28;19927;-77
2023/05/04 11:49:38;;;;;;;;;;;;;;;23.69;71.60;101585.94;5119630;28;20049;-77
2023/05/04 11:52:09;;;;;;;;;;;;;;;23.52;72.24;101574.81;5120879;28;19914;-77
2023/05/04 11:54:39;;;;;;;;;;;;;;;23.94;71.80;101568.47;5118720;28;19999;-77
2023/05/04 11:57:20;;;;;;;;;;;;;;;24.05;73.92;101556.72;5119955;28;20283;-77
2023/05/04 11:59:50;;;;;;;;;;;;;;;24.18;72.23;101558.34;5122618;28;20384;-77
2023/05/04 12:02:21;;;;;;;;;;;;;;;24.26;72.85;101550.59;5117235;28;19969;-77
2023/05/04 12:04:51;;;;;;;;;;;;;;;24.19;67.89;101546.31;5120113;28;19996;-77
2023/05/04 12:07:22;;;;;;;;;;;;;;;24.04;67.02;101539.41;5124112;28;19962;-77
2023/05/04 12:09:52;;;;;;;;;;;;;;;24.17;66.97;101535.59;5122698;28;19926;-77
2023/05/04 12:12:33;;;;;;;;;;;;;;;23.90;71.36;101528.94;5125616;28;19973;-77
2023/05/04 12:15:03;;;;;;;;;;;;;;;23.66;70.03;101519.88;5122056;28;20399;-77
2023/05/04 12:17:52;;;;;;;;;;;;;;;23.72;71.69;101514.28;5131040;28;19945;-77
2023/05/04 12:20:24;;;;;;;;;;;;;;;23.93;72.48;101501.88;5124785;28;20387;-77
2023/05/04 12:22:55;;;;;;;;;;;;;;;23.58;69.86;101506.50;5125180;28;19921;-77
2023/05/04 12:25:25;;;;;;;;;;;;;;;23.86;75.57;101501.19;5124007;28;19918;-77
2023/05/04 12:27:56;;;;;;;;;;;;;;;24.01;70.45;101498.78;5132919;28;19984;-77
2023/05/04 12:30:26;;;;;;;;;;;;;;;24.17;73.56;101488.16;5127531;28;19914;-77
2023/05/04 12:32:57;;;;;;;;;;;;;;;24.27;71.77;101485.63;5121903;28;19922;-77
2023/05/04 12:35:27;;;;;;;;;;;;;;;24.31;71.30;101480.50;5119739;28;19997;-77
2023/05/04 12:37:57;;;;;;;;;;;;;;;24.62;67.93;101471.84;5127530;28;19919;-77
2023/05/04 12:40:28;;;;;;;;;;;;;;;24.67;64.17;101468.38;5124299;28;20005;-77
2023/05/04 12:42:58;;;;;;;;;;;;;;;24.16;70.29;101448.13;5124233;28;19918;-77
2023/05/04 12:45:29;;;;;;;;;;;;;;;24.10;70.78;101454.53;5122789;28;19919;-77
2023/05/04 12:47:59;;;;;;;;;;;;;;;24.20;74.92;101441.91;5119528;28;20013;-77
2023/05/04 12:50:30;;;;;;;;;;;;;;;24.47;71.76;101435.91;5122603;28;19914;-77
2023/05/04 12:53:02;;;;;;;;;;;;;;;24.77;74.28;101430.16;5121247;28;20008;-77
2023/05/04 12:55:33;;;;;;;;;;;;;;;24.24;66.76;101432.09;5120471;28;19919;-77
2023/05/04 12:58:03;;;;;;;;;;;;;;;24.04;71.95;101443.47;5124828;28;20285;-77